Servinor Uno — EA8943 — position and weather

sailwx.info

Track history (hours):
 
Tides and Currents Weather Stations Pressure Air Temp Water Temp Dewpoint Dewpoint Depression Visibility Wind Speed Wind Dir Waves Ship Positions

Servinor Uno

Last reported at 2018-Feb-25 18:09 UTC. Time now 2018-Feb-25 23:27 UTC.
Position N 43°20' W 003°02'.

Length 18 m; draft 2.2 m.

Type: Other ship. MMSI: 224265930.

Date/timePositionNaut miles runAvg speedWind from/ knotsBaromVisibWave heightAir tempDewpointWater temp
2018-Feb-25 18:09N 43°20' W 003°02'0 3.0
2018-Feb-25 18:00N 43°20' W 003°01'0 0.0
2018-Feb-25 17:30N 43°20' W 003°01'0 0.0
2018-Feb-25 17:00N 43°20' W 003°01'0 0.0
2018-Feb-25 16:30N 43°20' W 003°01'0 0.0
2018-Feb-25 16:00N 43°20' W 003°01'0 0.0
2018-Feb-25 15:30N 43°20' W 003°01'0 0.0
2018-Feb-25 15:00N 43°20' W 003°01'0 0.0
2018-Feb-25 14:30N 43°20' W 003°01'0 0.0
2018-Feb-25 14:00N 43°20' W 003°01'0 0.0
2018-Feb-25 13:30N 43°20' W 003°01'0 0.0
2018-Feb-25 13:00N 43°20' W 003°01'0 0.0
2018-Feb-25 12:30N 43°20' W 003°01'0 0.0
2018-Feb-25 12:00N 43°20' W 003°01'0 0.0
2018-Feb-25 11:30N 43°20' W 003°01'0 0.3
2018-Feb-25 10:03N 43°20' W 003°02'0 0.0
2018-Feb-25 10:00N 43°20' W 003°02'0 0.0
2018-Feb-25 09:31N 43°20' W 003°02'0 0.0
2018-Feb-25 09:01N 43°20' W 003°02'0 0.0
2018-Feb-25 08:31N 43°20' W 003°02'0 0.0
2018-Feb-25 08:01N 43°20' W 003°02'0 0.0
2018-Feb-25 07:30N 43°20' W 003°02'0 0.0
2018-Feb-25 07:01N 43°20' W 003°02'0 0.0
2018-Feb-24 18:53N 43°20' W 003°02'1 3.4
2018-Feb-24 18:30N 43°21' W 003°02'3 5.9
2018-Feb-24 18:00N 43°22' W 003°06'0 0.0
2018-Feb-24 17:30N 43°22' W 003°06'0 0.0
2018-Feb-24 17:00N 43°22' W 003°06'0 0.0
2018-Feb-24 16:30N 43°22' W 003°06'0 0.0
2018-Feb-24 16:00N 43°22' W 003°06'1 1.5
2018-Feb-24 15:30N 43°22' W 003°05'3 5.1
2018-Feb-24 15:00N 43°20' W 003°02'0 0.1
2018-Feb-24 14:30N 43°20' W 003°02'1 1.7
2018-Feb-24 14:00N 43°21' W 003°02'3 5.5
2018-Feb-24 13:30N 43°22' W 003°06'0 0.0
2018-Feb-24 13:00N 43°22' W 003°06'0 0.0
2018-Feb-24 12:30N 43°22' W 003°06'0 0.0
2018-Feb-24 12:00N 43°22' W 003°06'0 0.0
2018-Feb-24 11:30N 43°22' W 003°06'0 0.0
2018-Feb-24 11:00N 43°22' W 003°06'3 5.2
2018-Feb-24 10:30N 43°22' W 003°02'2 3.4
2018-Feb-24 10:00N 43°20' W 003°02'  
2018-Feb-18 16:56N 43°20' W 003°02'1 2.5
2018-Feb-18 16:30N 43°21' W 003°03'0 0.0
2018-Feb-18 16:00N 43°21' W 003°03'0 0.0
2018-Feb-18 15:30N 43°21' W 003°03'0 0.0
2018-Feb-18 15:00N 43°21' W 003°03'0 0.0
2018-Feb-18 14:30N 43°21' W 003°03'1 1.5
2018-Feb-18 14:00N 43°21' W 003°02'1 0.0
2018-Feb-17 18:28N 43°20' W 003°02'0 0.2
2018-Feb-17 17:59N 43°20' W 003°02'0 0.0
2018-Feb-17 17:30N 43°20' W 003°02'0 0.0
2018-Feb-17 17:00N 43°20' W 003°02'0 0.0
2018-Feb-17 16:30N 43°20' W 003°02'0 0.0
2018-Feb-17 16:00N 43°20' W 003°02'0 0.0
2018-Feb-17 15:30N 43°20' W 003°02'0 0.0
2018-Feb-17 15:00N 43°20' W 003°02'0 0.0
2018-Feb-17 14:30N 43°20' W 003°02'0 0.0
2018-Feb-16 22:29N 43°20' W 003°02'0 0.2
2018-Feb-16 22:00N 43°20' W 003°02'0 0.0
2018-Feb-16 21:30N 43°20' W 003°02'0 0.0
2018-Feb-16 21:00N 43°20' W 003°02'0 0.0
2018-Feb-16 20:29N 43°20' W 003°02'0 0.0
2018-Feb-16 20:00N 43°20' W 003°02'0 0.0
2018-Feb-16 19:30N 43°20' W 003°02'0 0.0
2018-Feb-16 19:00N 43°20' W 003°02'0 0.0
2018-Feb-16 18:30N 43°20' W 003°02'0 0.0
2018-Feb-16 18:00N 43°20' W 003°02'0 0.0
2018-Feb-16 17:30N 43°20' W 003°02'0 0.0
2018-Feb-16 17:00N 43°20' W 003°02'0 0.0
2018-Feb-16 16:30N 43°20' W 003°02'1 2.6
2018-Feb-16 16:00N 43°21' W 003°03'1 1.1
2018-Feb-16 15:30N 43°21' W 003°03'0 0.0
2018-Feb-16 15:00N 43°21' W 003°03'0 0.0
2018-Feb-16 14:30N 43°21' W 003°03'0 0.0
2018-Feb-16 14:00N 43°21' W 003°03'0 0.0
2018-Feb-16 13:30N 43°21' W 003°03'0 0.0
2018-Feb-16 13:00N 43°21' W 003°03'1 1.3
2018-Feb-16 12:30N 43°21' W 003°02'1 2.0
2018-Feb-16 12:00N 43°20' W 003°02'0 0.0
2018-Feb-16 11:30N 43°20' W 003°02'0 0.2
2018-Feb-16 11:00N 43°20' W 003°02'1 2.0
2018-Feb-16 10:30N 43°21' W 003°03'0 0.0
2018-Feb-16 10:00N 43°21' W 003°03'0 0.0
2018-Feb-16 09:30N 43°21' W 003°03'0 0.0
2018-Feb-16 09:00N 43°21' W 003°03'0 0.0
2018-Feb-16 08:30N 43°21' W 003°03'0 0.6
2018-Feb-16 08:00N 43°21' W 003°02'1 2.5
2018-Feb-16 07:30N 43°20' W 003°02'0 0.0
2018-Feb-15 18:53N 43°20' W 003°02'0 0.3
2018-Feb-15 18:30N 43°20' W 003°02'  
Track history (hours):
 
Tides and Currents Weather Stations Pressure Air Temp Water Temp Dewpoint Dewpoint Depression Visibility Wind Speed Wind Dir Waves Ship Positions

Servinor Uno

Last reported at 2018-Feb-25 18:09 UTC. Time now 2018-Feb-25 23:27 UTC.
Position N 43°20' W 003°02'.

Length 18 m; draft 2.2 m.

Type: Other ship. MMSI: 224265930.

Date/timePositionNaut miles runAvg speedWind from/ knotsBaromVisibWave heightAir tempDewpointWater temp
2018-Feb-25 18:09N 43°20' W 003°02'0 3.0
2018-Feb-25 18:00N 43°20' W 003°01'0 0.0
2018-Feb-25 17:30N 43°20' W 003°01'0 0.0
2018-Feb-25 17:00N 43°20' W 003°01'0 0.0
2018-Feb-25 16:30N 43°20' W 003°01'0 0.0
2018-Feb-25 16:00N 43°20' W 003°01'0 0.0
2018-Feb-25 15:30N 43°20' W 003°01'0 0.0
2018-Feb-25 15:00N 43°20' W 003°01'0 0.0
2018-Feb-25 14:30N 43°20' W 003°01'0 0.0
2018-Feb-25 14:00N 43°20' W 003°01'0 0.0
2018-Feb-25 13:30N 43°20' W 003°01'0 0.0
2018-Feb-25 13:00N 43°20' W 003°01'0 0.0
2018-Feb-25 12:30N 43°20' W 003°01'0 0.0
2018-Feb-25 12:00N 43°20' W 003°01'0 0.0
2018-Feb-25 11:30N 43°20' W 003°01'0 0.3
2018-Feb-25 10:03N 43°20' W 003°02'0 0.0
2018-Feb-25 10:00N 43°20' W 003°02'0 0.0
2018-Feb-25 09:31N 43°20' W 003°02'0 0.0
2018-Feb-25 09:01N 43°20' W 003°02'0 0.0
2018-Feb-25 08:31N 43°20' W 003°02'0 0.0
2018-Feb-25 08:01N 43°20' W 003°02'0 0.0
2018-Feb-25 07:30N 43°20' W 003°02'0 0.0
2018-Feb-25 07:01N 43°20' W 003°02'0 0.0
2018-Feb-24 18:53N 43°20' W 003°02'1 3.4
2018-Feb-24 18:30N 43°21' W 003°02'3 5.9
2018-Feb-24 18:00N 43°22' W 003°06'0 0.0
2018-Feb-24 17:30N 43°22' W 003°06'0 0.0
2018-Feb-24 17:00N 43°22' W 003°06'0 0.0
2018-Feb-24 16:30N 43°22' W 003°06'0 0.0
2018-Feb-24 16:00N 43°22' W 003°06'1 1.5
2018-Feb-24 15:30N 43°22' W 003°05'3 5.1
2018-Feb-24 15:00N 43°20' W 003°02'0 0.1
2018-Feb-24 14:30N 43°20' W 003°02'1 1.7
2018-Feb-24 14:00N 43°21' W 003°02'3 5.5
2018-Feb-24 13:30N 43°22' W 003°06'0 0.0
2018-Feb-24 13:00N 43°22' W 003°06'0 0.0
2018-Feb-24 12:30N 43°22' W 003°06'0 0.0
2018-Feb-24 12:00N 43°22' W 003°06'0 0.0
2018-Feb-24 11:30N 43°22' W 003°06'0 0.0
2018-Feb-24 11:00N 43°22' W 003°06'3 5.2
2018-Feb-24 10:30N 43°22' W 003°02'2 3.4
2018-Feb-24 10:00N 43°20' W 003°02'  
2018-Feb-18 16:56N 43°20' W 003°02'1 2.5
2018-Feb-18 16:30N 43°21' W 003°03'0 0.0
2018-Feb-18 16:00N 43°21' W 003°03'0 0.0
2018-Feb-18 15:30N 43°21' W 003°03'0 0.0
2018-Feb-18 15:00N 43°21' W 003°03'0 0.0
2018-Feb-18 14:30N 43°21' W 003°03'1 1.5
2018-Feb-18 14:00N 43°21' W 003°02'1 0.0
2018-Feb-17 18:28N 43°20' W 003°02'0 0.2
2018-Feb-17 17:59N 43°20' W 003°02'0 0.0
2018-Feb-17 17:30N 43°20' W 003°02'0 0.0
2018-Feb-17 17:00N 43°20' W 003°02'0 0.0
2018-Feb-17 16:30N 43°20' W 003°02'0 0.0
2018-Feb-17 16:00N 43°20' W 003°02'0 0.0
2018-Feb-17 15:30N 43°20' W 003°02'0 0.0
2018-Feb-17 15:00N 43°20' W 003°02'0 0.0
2018-Feb-17 14:30N 43°20' W 003°02'0 0.0
2018-Feb-16 22:29N 43°20' W 003°02'0 0.2
2018-Feb-16 22:00N 43°20' W 003°02'0 0.0
2018-Feb-16 21:30N 43°20' W 003°02'0 0.0
2018-Feb-16 21:00N 43°20' W 003°02'0 0.0
2018-Feb-16 20:29N 43°20' W 003°02'0 0.0
2018-Feb-16 20:00N 43°20' W 003°02'0 0.0
2018-Feb-16 19:30N 43°20' W 003°02'0 0.0
2018-Feb-16 19:00N 43°20' W 003°02'0 0.0
2018-Feb-16 18:30N 43°20' W 003°02'0 0.0
2018-Feb-16 18:00N 43°20' W 003°02'0 0.0
2018-Feb-16 17:30N 43°20' W 003°02'0 0.0
2018-Feb-16 17:00N 43°20' W 003°02'0 0.0
2018-Feb-16 16:30N 43°20' W 003°02'1 2.6
2018-Feb-16 16:00N 43°21' W 003°03'1 1.1
2018-Feb-16 15:30N 43°21' W 003°03'0 0.0
2018-Feb-16 15:00N 43°21' W 003°03'0 0.0
2018-Feb-16 14:30N 43°21' W 003°03'0 0.0
2018-Feb-16 14:00N 43°21' W 003°03'0 0.0
2018-Feb-16 13:30N 43°21' W 003°03'0 0.0
2018-Feb-16 13:00N 43°21' W 003°03'1 1.3
2018-Feb-16 12:30N 43°21' W 003°02'1 2.0
2018-Feb-16 12:00N 43°20' W 003°02'0 0.0
2018-Feb-16 11:30N 43°20' W 003°02'0 0.2
2018-Feb-16 11:00N 43°20' W 003°02'1 2.0
2018-Feb-16 10:30N 43°21' W 003°03'0 0.0
2018-Feb-16 10:00N 43°21' W 003°03'0 0.0
2018-Feb-16 09:30N 43°21' W 003°03'0 0.0
2018-Feb-16 09:00N 43°21' W 003°03'0 0.0
2018-Feb-16 08:30N 43°21' W 003°03'0 0.6
2018-Feb-16 08:00N 43°21' W 003°02'1 2.5
2018-Feb-16 07:30N 43°20' W 003°02'0 0.0
2018-Feb-15 18:53N 43°20' W 003°02'0 0.3
2018-Feb-15 18:30N 43°20' W 003°02'  

Dump ship's entire track history